createdAt,value
2022-08-05T00:00:50.570Z,51.08
2022-08-05T00:01:50.432Z,51.24
2022-08-05T00:02:51.611Z,50.92
2022-08-05T00:03:50.321Z,51.24
2022-08-05T00:04:55.306Z,51.24
2022-08-05T00:06:05.365Z,51.24
2022-08-05T00:06:51.764Z,51.08
2022-08-05T00:08:00.336Z,52.05
2022-08-05T00:08:51.281Z,51.56
2022-08-05T00:09:50.295Z,52.05
2022-08-05T00:10:50.340Z,51.24
2022-08-05T00:11:55.890Z,50.43
2022-08-05T00:12:56.466Z,50.92
2022-08-05T00:13:52.985Z,53.01
2022-08-05T00:14:51.892Z,53.98
2022-08-05T00:15:55.043Z,51.24
2022-08-05T00:16:52.497Z,51.88
2022-08-05T00:17:50.203Z,52.05
2022-08-05T00:18:50.212Z,53.17
2022-08-05T00:20:01.825Z,52.53
2022-08-05T00:20:51.178Z,52.21
2022-08-05T00:21:50.217Z,52.05
2022-08-05T00:22:57.453Z,51.24
2022-08-05T00:23:53.658Z,50.43
2022-08-05T00:24:55.005Z,50.43
2022-08-05T00:25:50.134Z,51.08
2022-08-05T00:26:51.954Z,52.05
2022-08-05T00:27:50.125Z,52.05
2022-08-05T00:28:50.117Z,49.79
2022-08-05T00:29:50.103Z,50.76
2022-08-05T00:30:52.036Z,51.40
2022-08-05T00:32:10.562Z,51.72
2022-08-05T00:32:51.076Z,49.95
2022-08-05T00:34:55.264Z,50.43
2022-08-05T00:35:04.654Z,50.27
2022-08-05T00:36:16.516Z,51.88
2022-08-05T00:37:10.727Z,51.56
2022-08-05T00:37:53.965Z,53.17
2022-08-05T00:38:50.024Z,50.60
2022-08-05T00:39:58.011Z,51.40
2022-08-05T00:40:53.210Z,51.56
2022-08-05T00:41:54.894Z,55.43
2022-08-05T00:42:50.991Z,50.92
2022-08-05T00:43:50.161Z,50.76
2022-08-05T00:44:49.978Z,51.56
2022-08-05T00:45:49.978Z,50.60
2022-08-05T00:46:54.139Z,50.92
2022-08-05T00:47:57.336Z,51.40
2022-08-05T00:48:51.482Z,50.60
2022-08-05T00:49:51.789Z,57.52
2022-08-05T00:50:50.004Z,51.40
2022-08-05T00:51:52.172Z,51.40
2022-08-05T00:52:49.926Z,52.85
2022-08-05T00:54:02.234Z,53.66
2022-08-05T00:54:50.902Z,51.24
2022-08-05T00:55:49.891Z,50.60
2022-08-05T00:56:51.769Z,50.27
2022-08-05T00:57:55.409Z,53.98
2022-08-05T00:58:50.863Z,51.40
2022-08-05T00:59:49.860Z,50.11
2022-08-05T01:00:49.845Z,50.11
2022-08-05T01:01:49.910Z,50.43
2022-08-05T01:02:50.205Z,52.53
2022-08-05T01:03:50.078Z,53.50
2022-08-05T01:04:50.394Z,52.69
2022-08-05T01:05:49.804Z,51.24
2022-08-05T01:06:51.744Z,55.91
2022-08-05T01:08:29.790Z,51.72
2022-08-05T01:08:50.773Z,50.92
2022-08-05T01:09:55.672Z,51.72
2022-08-05T01:10:52.278Z,51.24
2022-08-05T01:11:49.759Z,51.72
2022-08-05T01:13:05.366Z,50.92
2022-08-05T01:13:58.494Z,52.69
2022-08-05T01:14:50.736Z,54.46
2022-08-05T01:15:49.723Z,53.82
2022-08-05T01:16:49.716Z,51.24
2022-08-05T01:17:53.731Z,51.72
2022-08-05T01:18:56.200Z,51.88
2022-08-05T01:20:01.614Z,52.05
2022-08-05T01:20:50.715Z,51.88
2022-08-05T01:21:50.696Z,51.56
2022-08-05T01:22:49.730Z,50.76
2022-08-05T01:23:53.139Z,50.76
2022-08-05T01:24:49.644Z,50.92
2022-08-05T01:25:50.250Z,50.76
2022-08-05T01:26:49.631Z,50.43
2022-08-05T01:27:55.349Z,51.40
2022-08-05T01:28:50.621Z,52.05
2022-08-05T01:29:49.700Z,51.24
2022-08-05T01:30:53.905Z,53.33
2022-08-05T01:31:50.622Z,54.79
2022-08-05T01:32:49.589Z,55.75
2022-08-05T01:33:53.457Z,57.20
2022-08-05T01:34:49.671Z,56.56
2022-08-05T01:35:51.805Z,59.94
2022-08-05T01:36:49.589Z,63.65
2022-08-05T01:37:49.545Z,66.39
2022-08-05T01:38:49.871Z,67.19
2022-08-05T01:39:50.599Z,67.19
2022-08-05T01:40:49.516Z,67.35
2022-08-05T01:41:49.537Z,67.35
2022-08-05T01:42:49.499Z,68.16
2022-08-05T01:43:49.490Z,68.64
2022-08-05T01:44:54.253Z,68.00
2022-08-05T01:45:56.416Z,68.00
2022-08-05T01:46:50.505Z,67.84
2022-08-05T01:47:49.458Z,68.16
2022-08-05T01:48:50.453Z,68.00
2022-08-05T01:50:01.335Z,67.84
2022-08-05T01:50:51.335Z,68.32
2022-08-05T01:51:51.740Z,67.19
2022-08-05T01:52:49.704Z,66.87
2022-08-05T01:53:57.742Z,64.13
2022-08-05T01:54:52.842Z,61.87
2022-08-05T01:55:49.396Z,65.26
2022-08-05T01:58:11.967Z,62.68
2022-08-05T01:58:12.246Z,62.52
2022-08-05T01:58:50.831Z,62.52
2022-08-05T01:59:50.365Z,63.00
2022-08-05T02:00:49.348Z,62.36
2022-08-05T02:01:49.429Z,62.68
2022-08-05T02:02:54.293Z,64.78
2022-08-05T02:03:50.324Z,63.65
2022-08-05T02:04:49.659Z,64.13
2022-08-05T02:05:49.318Z,66.55
2022-08-05T02:06:49.326Z,67.51
2022-08-05T02:07:59.834Z,65.90
2022-08-05T02:08:58.164Z,66.87
2022-08-05T02:09:50.271Z,66.71
2022-08-05T02:10:49.279Z,64.45
2022-08-05T02:11:52.477Z,63.16
2022-08-05T02:12:50.980Z,62.52
2022-08-05T02:13:53.648Z,62.52
2022-08-05T02:14:49.240Z,61.39
2022-08-05T02:15:49.230Z,62.04
2022-08-05T02:16:52.313Z,62.36
2022-08-05T02:18:33.297Z,62.36
2022-08-05T02:18:50.197Z,62.52
2022-08-05T02:19:49.197Z,62.04
2022-08-05T02:20:49.343Z,60.91
2022-08-05T02:21:49.373Z,59.94
2022-08-05T02:22:49.164Z,58.01
2022-08-05T02:23:49.158Z,58.81
2022-08-05T02:24:51.328Z,58.01
2022-08-05T02:25:50.558Z,52.85
2022-08-05T02:26:54.567Z,53.82
2022-08-05T02:27:59.050Z,52.69
2022-08-05T02:28:50.127Z,53.66
2022-08-05T02:29:59.938Z,53.17
2022-08-05T02:30:51.640Z,52.37
2022-08-05T02:31:49.098Z,53.50
2022-08-05T02:32:49.110Z,54.30
2022-08-05T02:33:49.074Z,57.69
2022-08-05T02:34:54.516Z,61.71
2022-08-05T02:35:58.927Z,61.71
2022-08-05T02:36:50.053Z,59.78
2022-08-05T02:37:54.176Z,65.58
2022-08-05T02:38:52.963Z,66.71
2022-08-05T02:39:51.524Z,60.42
2022-08-05T02:40:49.025Z,56.72
2022-08-05T02:41:57.985Z,56.72
2022-08-05T02:42:52.709Z,57.69
2022-08-05T02:44:02.919Z,58.01
2022-08-05T02:44:49.981Z,59.94
2022-08-05T02:45:52.573Z,59.14
2022-08-05T02:46:53.817Z,60.10
2022-08-05T02:48:07.428Z,62.68
2022-08-05T02:48:49.963Z,57.52
2022-08-05T02:49:48.947Z,56.56
2022-08-05T02:50:48.932Z,60.42
2022-08-05T02:52:04.421Z,57.04
2022-08-05T02:52:49.931Z,56.56
2022-08-05T02:53:48.913Z,57.69
2022-08-05T02:54:51.160Z,56.56
2022-08-05T02:55:54.651Z,55.75
2022-08-05T02:56:49.923Z,58.97
2022-08-05T02:58:09.654Z,57.04
2022-08-05T02:58:51.239Z,57.52
2022-08-05T02:59:51.940Z,55.59
2022-08-05T03:00:48.857Z,56.56
2022-08-05T03:01:48.946Z,57.20
2022-08-05T03:02:48.842Z,56.72
2022-08-05T03:04:02.157Z,55.91
2022-08-05T03:04:53.241Z,55.75
2022-08-05T03:06:57.024Z,56.56
2022-08-05T03:06:59.480Z,58.01
2022-08-05T03:08:01.396Z,55.75
2022-08-05T03:08:52.047Z,56.24
2022-08-05T03:09:51.484Z,57.20
2022-08-05T03:11:53.129Z,57.20
2022-08-05T03:11:56.273Z,57.04
2022-08-05T03:12:51.813Z,56.24
2022-08-05T03:13:51.896Z,59.62
2022-08-05T03:14:50.732Z,56.72
2022-08-05T03:15:48.723Z,57.20
2022-08-05T03:16:48.751Z,56.07
2022-08-05T03:17:48.709Z,59.78
2022-08-05T03:18:49.697Z,57.36
2022-08-05T03:19:48.693Z,60.10
2022-08-05T03:20:49.073Z,60.10
2022-08-05T03:21:50.024Z,58.49
2022-08-05T03:22:50.503Z,56.56
2022-08-05T03:23:48.662Z,56.56
2022-08-05T03:24:51.099Z,58.17
2022-08-05T03:26:05.045Z,62.84
2022-08-05T03:26:49.661Z,56.07
2022-08-05T03:28:00.231Z,57.36
2022-08-05T03:28:49.618Z,60.75
2022-08-05T03:30:07.416Z,57.20
2022-08-05T03:30:49.613Z,67.03
2022-08-05T03:31:57.262Z,60.26
2022-08-05T03:32:49.591Z,59.94
2022-08-05T03:33:52.978Z,56.07
2022-08-05T03:34:50.996Z,58.33
2022-08-05T03:35:48.567Z,57.69
2022-08-05T03:36:48.601Z,61.23
2022-08-05T03:37:48.546Z,61.23
2022-08-05T03:38:53.258Z,58.01
2022-08-05T03:39:59.080Z,58.49
2022-08-05T03:40:49.591Z,58.33
2022-08-05T03:41:48.546Z,58.01
2022-08-05T03:42:52.203Z,57.04
2022-08-05T03:44:08.815Z,58.49
2022-08-05T03:44:49.483Z,59.30
2022-08-05T03:45:57.216Z,58.81
2022-08-05T03:46:49.495Z,64.94
2022-08-05T03:47:49.340Z,56.72
2022-08-05T03:48:48.516Z,58.01
2022-08-05T03:49:51.229Z,59.78
2022-08-05T03:50:48.437Z,61.87
2022-08-05T03:52:48.404Z,58.97
2022-08-05T03:55:34.061Z,61.23
2022-08-05T03:55:52.303Z,59.62
2022-08-05T03:55:53.871Z,57.69
2022-08-05T03:56:06.028Z,60.42
2022-08-05T03:56:50.095Z,56.88
2022-08-05T03:57:48.713Z,55.91
2022-08-05T03:58:48.382Z,57.69
2022-08-05T03:59:55.430Z,56.24
2022-08-05T04:00:51.539Z,60.26
2022-08-05T04:01:48.512Z,62.04
2022-08-05T04:02:57.975Z,56.24
2022-08-05T04:04:09.196Z,56.88
2022-08-05T04:04:49.317Z,58.49
2022-08-05T04:05:48.311Z,57.20
2022-08-05T04:06:51.404Z,59.30
2022-08-05T04:07:58.653Z,61.71
2022-08-05T04:08:49.290Z,59.78
2022-08-05T04:09:53.788Z,61.55
2022-08-05T04:10:49.271Z,57.04
2022-08-05T04:11:52.466Z,56.88
2022-08-05T04:12:48.286Z,63.97
2022-08-05T04:13:50.610Z,58.97
2022-08-05T04:14:49.236Z,57.52
2022-08-05T04:15:53.019Z,56.88
2022-08-05T04:16:49.217Z,64.94
2022-08-05T04:17:56.299Z,56.72
2022-08-05T04:18:54.509Z,61.55
2022-08-05T04:19:54.506Z,59.30
2022-08-05T04:20:49.180Z,59.94
2022-08-05T04:22:09.258Z,57.36
2022-08-05T04:22:49.197Z,59.94
2022-08-05T04:24:05.256Z,57.52
2022-08-05T04:24:52.707Z,60.75
2022-08-05T04:26:00.243Z,58.49
2022-08-05T04:26:49.140Z,58.97
2022-08-05T04:27:58.220Z,63.00
2022-08-05T04:28:51.349Z,59.30
2022-08-05T04:29:48.453Z,61.71
2022-08-05T04:30:48.174Z,59.62
2022-08-05T04:31:48.445Z,59.46
2022-08-05T04:32:48.118Z,58.33
2022-08-05T04:34:17.269Z,59.14
2022-08-05T04:34:49.066Z,62.84
2022-08-05T04:36:09.430Z,57.85
2022-08-05T04:36:50.216Z,57.85
2022-08-05T04:38:02.305Z,64.13
2022-08-05T04:38:51.118Z,61.55
2022-08-05T04:39:52.955Z,60.91
2022-08-05T04:40:50.773Z,58.97
2022-08-05T04:41:48.448Z,66.39
2022-08-05T04:42:48.035Z,62.52
2022-08-05T04:43:52.038Z,59.78
2022-08-05T04:44:48.979Z,59.46
2022-08-05T04:45:55.033Z,59.46
2022-08-05T04:46:48.965Z,60.59
2022-08-05T04:47:47.991Z,66.71
2022-08-05T04:48:47.944Z,57.20
2022-08-05T04:50:01.645Z,62.68
2022-08-05T04:51:03.264Z,57.85
2022-08-05T04:51:48.919Z,59.94
2022-08-05T04:52:48.942Z,57.69
2022-08-05T04:53:47.913Z,58.65
2022-08-05T04:54:49.449Z,62.20
2022-08-05T04:56:14.702Z,63.00
2022-08-05T04:56:48.885Z,59.62
2022-08-05T04:57:54.201Z,62.68
2022-08-05T04:58:48.865Z,61.07
2022-08-05T04:59:48.039Z,57.85
2022-08-05T05:00:50.851Z,63.81
2022-08-05T05:02:07.118Z,58.97
2022-08-05T05:02:48.929Z,67.68
2022-08-05T05:03:47.830Z,60.91
2022-08-05T05:04:50.505Z,57.52
2022-08-05T05:06:36.507Z,68.96
2022-08-05T05:06:49.201Z,62.68
2022-08-05T05:07:52.992Z,60.59
2022-08-05T05:08:50.189Z,64.29
2022-08-05T05:09:47.779Z,63.81
2022-08-05T05:10:55.920Z,66.23
2022-08-05T05:11:54.025Z,61.23
2022-08-05T05:12:48.773Z,61.07
2022-08-05T05:13:47.747Z,58.49
2022-08-05T05:14:49.385Z,63.33
2022-08-05T05:15:59.511Z,65.58
2022-08-05T05:16:48.714Z,62.84
2022-08-05T05:17:55.887Z,67.35
2022-08-05T05:19:16.430Z,60.10
2022-08-05T05:19:49.689Z,60.26
2022-08-05T05:20:47.681Z,56.88
2022-08-05T05:21:47.673Z,60.75
2022-08-05T05:22:47.669Z,60.59
2022-08-05T05:24:03.734Z,66.55
2022-08-05T05:24:58.035Z,61.07
2022-08-05T05:25:48.648Z,58.81
2022-08-05T05:26:47.976Z,58.65
2022-08-05T05:27:53.631Z,64.78
2022-08-05T05:28:48.647Z,66.71
2022-08-05T05:30:04.339Z,56.24
2022-08-05T05:30:49.569Z,63.33
2022-08-05T05:31:48.653Z,58.81
2022-08-05T05:32:47.597Z,65.58
2022-08-05T05:33:58.900Z,65.26
2022-08-05T05:34:48.566Z,67.35
2022-08-05T05:35:48.017Z,60.42
2022-08-05T05:36:47.559Z,61.07
2022-08-05T05:38:01.396Z,58.49
2022-08-05T05:38:48.569Z,61.23
2022-08-05T05:39:47.591Z,60.26
2022-08-05T05:40:51.205Z,61.55
2022-08-05T05:41:54.322Z,66.71
2022-08-05T05:42:48.505Z,70.09
2022-08-05T05:43:56.791Z,70.25
2022-08-05T05:44:48.483Z,69.93
2022-08-05T05:45:48.228Z,70.09
2022-08-05T05:46:47.779Z,69.61
2022-08-05T05:48:06.593Z,70.25
2022-08-05T05:48:49.012Z,68.96
2022-08-05T05:49:47.454Z,68.64
2022-08-05T05:50:48.435Z,69.29
2022-08-05T05:51:50.632Z,68.96
2022-08-05T05:52:47.425Z,70.09
2022-08-05T05:53:57.635Z,71.38
2022-08-05T05:54:50.224Z,71.54
2022-08-05T05:55:52.111Z,72.03
2022-08-05T05:56:48.392Z,70.90
2022-08-05T05:57:52.902Z,71.06
2022-08-05T05:58:48.398Z,70.90
2022-08-05T05:59:47.358Z,72.03
2022-08-05T06:00:47.353Z,70.25
2022-08-05T06:01:57.831Z,69.45
2022-08-05T06:02:48.347Z,69.93
2022-08-05T06:04:01.395Z,70.58
2022-08-05T06:04:49.343Z,69.45
2022-08-05T06:05:54.149Z,68.48
2022-08-05T06:06:49.047Z,68.32
2022-08-05T06:07:57.798Z,67.68
2022-08-05T06:08:49.395Z,65.58
2022-08-05T06:09:59.874Z,65.58
2022-08-05T06:10:49.190Z,67.35
2022-08-05T06:12:00.976Z,67.03
2022-08-05T06:12:48.249Z,67.84
2022-08-05T06:13:53.877Z,66.23
2022-08-05T06:14:48.236Z,65.42
2022-08-05T06:16:30.333Z,65.58
2022-08-05T06:16:48.213Z,65.90
2022-08-05T06:17:53.586Z,65.90
2022-08-05T06:18:48.240Z,68.48
2022-08-05T06:19:56.988Z,67.35
2022-08-05T06:20:48.189Z,67.68
2022-08-05T06:21:49.756Z,67.68
2022-08-05T06:22:48.171Z,68.16
2022-08-05T06:23:47.191Z,66.23
2022-08-05T06:24:48.158Z,66.06
2022-08-05T06:26:12.237Z,66.06
2022-08-05T06:26:51.571Z,65.74
2022-08-05T06:28:11.762Z,67.19
2022-08-05T06:28:48.148Z,66.06
2022-08-05T06:30:04.179Z,65.58
2022-08-05T06:30:49.189Z,65.90
2022-08-05T06:31:47.106Z,66.39
2022-08-05T06:32:47.100Z,66.39
2022-08-05T06:34:07.117Z,67.51
2022-08-05T06:34:48.074Z,66.87
2022-08-05T06:36:07.089Z,67.19
2022-08-05T06:36:57.702Z,66.23
2022-08-05T06:37:57.450Z,68.64
2022-08-05T06:38:48.068Z,67.35
2022-08-05T06:39:47.070Z,64.94
2022-08-05T06:40:47.022Z,65.26
2022-08-05T06:41:47.016Z,64.94
2022-08-05T06:42:47.009Z,65.42
2022-08-05T06:43:58.550Z,65.42
2022-08-05T06:44:49.291Z,65.58
2022-08-05T06:46:06.528Z,68.48
2022-08-05T06:46:47.973Z,66.23
2022-08-05T06:48:37.316Z,65.90
2022-08-05T06:48:55.503Z,66.23
2022-08-05T06:50:01.354Z,66.71
2022-08-05T06:50:47.934Z,65.90
2022-08-05T06:51:46.935Z,65.90
2022-08-05T06:52:58.617Z,65.42
2022-08-05T06:53:53.747Z,63.16
2022-08-05T06:54:52.051Z,65.42
2022-08-05T06:55:47.904Z,63.81
2022-08-05T06:56:54.905Z,62.84
2022-08-05T06:58:03.305Z,64.61
2022-08-05T06:58:47.865Z,62.68
2022-08-05T06:59:48.537Z,61.71
2022-08-05T07:00:47.867Z,64.29
2022-08-05T07:01:46.878Z,61.23
2022-08-05T07:02:47.840Z,61.23
2022-08-05T07:03:47.826Z,59.30
2022-08-05T07:04:46.858Z,53.98
2022-08-05T07:05:46.812Z,60.10
2022-08-05T07:06:46.805Z,58.81
2022-08-05T07:07:46.797Z,53.50
2022-08-05T07:08:47.187Z,58.01
2022-08-05T07:09:46.810Z,53.82
2022-08-05T07:10:52.586Z,67.68
2022-08-05T07:11:51.421Z,55.59
2022-08-05T07:12:49.133Z,61.23
2022-08-05T07:13:57.535Z,58.81
2022-08-05T07:14:47.763Z,54.30
2022-08-05T07:16:01.995Z,57.69
2022-08-05T07:17:58.981Z,58.65
2022-08-05T07:18:09.381Z,59.46
2022-08-05T07:18:48.026Z,54.79
2022-08-05T07:20:48.689Z,55.91
2022-08-05T07:22:00.886Z,53.66
2022-08-05T07:22:47.944Z,56.72
2022-08-05T07:23:49.179Z,59.78
2022-08-05T07:24:52.470Z,54.30
2022-08-05T07:25:55.016Z,53.01
2022-08-05T07:26:48.637Z,55.75
2022-08-05T07:27:58.799Z,57.20
2022-08-05T07:28:47.620Z,53.50
2022-08-05T07:30:22.802Z,55.11
2022-08-05T07:30:50.269Z,53.50
2022-08-05T07:31:54.715Z,60.42
2022-08-05T07:32:50.930Z,57.69
2022-08-05T07:33:47.577Z,53.82
2022-08-05T07:34:46.641Z,58.97
2022-08-05T07:36:04.783Z,60.59
2022-08-05T07:36:47.557Z,59.46
2022-08-05T07:37:47.317Z,54.46
2022-08-05T07:38:46.550Z,55.11
2022-08-05T07:40:26.305Z,64.61
2022-08-05T07:40:47.575Z,61.39
2022-08-05T07:42:08.032Z,57.69
2022-08-05T07:42:47.513Z,56.88
2022-08-05T07:43:46.504Z,59.62
2022-08-05T07:44:46.529Z,55.75
2022-08-05T07:45:57.395Z,55.59
2022-08-05T07:46:48.390Z,55.91
2022-08-05T07:47:46.474Z,56.56
2022-08-05T07:49:01.797Z,59.78
2022-08-05T07:49:54.678Z,56.40
2022-08-05T07:50:47.444Z,55.43
2022-08-05T07:51:53.877Z,57.36
2022-08-05T07:52:47.420Z,54.62
2022-08-05T07:53:50.507Z,53.50
2022-08-05T07:54:49.126Z,57.20
2022-08-05T07:56:06.453Z,56.72
2022-08-05T07:57:01.827Z,60.42
2022-08-05T07:57:57.509Z,57.04
2022-08-05T07:58:54.776Z,54.14
2022-08-05T07:59:49.007Z,60.91
2022-08-05T08:00:46.405Z,54.46
2022-08-05T08:01:52.292Z,57.04
2022-08-05T08:03:15.420Z,59.62
2022-08-05T08:03:47.372Z,56.72
2022-08-05T08:04:46.367Z,58.33
2022-08-05T08:05:49.811Z,59.30
2022-08-05T08:06:47.312Z,59.94
2022-08-05T08:07:58.863Z,60.91
2022-08-05T08:08:47.307Z,60.26
2022-08-05T08:09:46.318Z,56.24
2022-08-05T08:10:48.693Z,60.91
2022-08-05T08:11:49.467Z,57.36
2022-08-05T08:12:48.681Z,60.10
2022-08-05T08:14:00.892Z,56.24
2022-08-05T08:14:47.292Z,63.97
2022-08-05T08:16:49.761Z,58.65
2022-08-05T08:16:51.452Z,56.56
2022-08-05T08:17:52.489Z,61.71
2022-08-05T08:18:49.913Z,62.20
2022-08-05T08:20:43.642Z,61.23
2022-08-05T08:21:03.001Z,61.23
2022-08-05T08:21:47.186Z,56.40
2022-08-05T08:22:46.176Z,61.23
2022-08-05T08:24:01.768Z,57.69
2022-08-05T08:24:51.359Z,55.27
2022-08-05T08:26:00.457Z,53.82
2022-08-05T08:26:47.143Z,56.56
2022-08-05T08:27:47.771Z,56.24
2022-08-05T08:28:58.928Z,60.26
2022-08-05T08:30:05.897Z,56.88
2022-08-05T08:30:47.855Z,56.72
2022-08-05T08:31:46.111Z,56.56
2022-08-05T08:32:46.102Z,60.42
2022-08-05T08:33:46.091Z,56.88
2022-08-05T08:34:47.138Z,55.11
2022-08-05T08:35:53.112Z,59.30
2022-08-05T08:36:52.618Z,62.36
2022-08-05T08:37:47.066Z,55.27
2022-08-05T08:38:53.254Z,58.65
2022-08-05T08:39:49.550Z,57.36
2022-08-05T08:40:51.548Z,57.69
2022-08-05T08:41:51.737Z,61.71
2022-08-05T08:42:52.377Z,60.10
2022-08-05T08:45:16.542Z,64.29
2022-08-05T08:45:22.763Z,63.81
2022-08-05T08:45:46.988Z,60.10
2022-08-05T08:46:45.983Z,61.07
2022-08-05T08:48:05.917Z,57.04
2022-08-05T08:49:06.238Z,61.55
2022-08-05T08:50:06.103Z,56.88
2022-08-05T08:51:03.411Z,56.56
2022-08-05T08:52:05.887Z,57.36
2022-08-05T08:52:51.387Z,60.10
2022-08-05T08:53:46.019Z,59.30
2022-08-05T08:54:46.045Z,54.30
2022-08-05T08:56:03.605Z,53.82
2022-08-05T08:56:47.632Z,65.58
2022-08-05T08:57:57.863Z,53.01
2022-08-05T08:58:48.705Z,57.20
2022-08-05T08:59:47.171Z,58.49
2022-08-05T09:00:45.986Z,56.07
2022-08-05T09:01:45.862Z,58.49
2022-08-05T09:02:46.861Z,59.30
2022-08-05T09:03:45.851Z,55.43
2022-08-05T09:04:58.250Z,54.30
2022-08-05T09:06:08.603Z,57.85
2022-08-05T09:06:46.815Z,61.23
2022-08-05T09:07:57.506Z,56.72
2022-08-05T09:08:46.830Z,56.24
2022-08-05T09:09:45.830Z,57.04
2022-08-05T09:10:46.734Z,57.85
2022-08-05T09:11:52.860Z,60.26
2022-08-05T09:12:51.056Z,57.36
2022-08-05T09:14:00.803Z,54.95
2022-08-05T09:14:57.153Z,53.66
2022-08-05T09:15:46.753Z,55.91
2022-08-05T09:16:49.026Z,52.85
2022-08-05T09:17:49.565Z,55.91
2022-08-05T09:18:45.729Z,54.79
2022-08-05T09:20:01.420Z,57.20
2022-08-05T09:20:46.716Z,52.85
2022-08-05T09:22:21.999Z,54.14
2022-08-05T09:22:51.790Z,57.85
2022-08-05T09:23:46.696Z,56.72
2022-08-05T09:24:45.730Z,55.59
2022-08-05T09:26:03.069Z,56.56
2022-08-05T09:26:46.674Z,56.40
2022-08-05T09:28:04.890Z,60.26
2022-08-05T09:28:46.665Z,56.07
2022-08-05T09:29:47.935Z,57.04
2022-08-05T09:30:45.646Z,60.42
2022-08-05T09:32:41.483Z,58.81
2022-08-05T09:32:46.988Z,53.01
2022-08-05T09:33:45.620Z,56.56
2022-08-05T09:34:45.649Z,57.20
2022-08-05T09:35:45.614Z,53.82
2022-08-05T09:36:56.173Z,52.53
2022-08-05T09:38:16.459Z,60.26
2022-08-05T09:38:46.581Z,62.04
2022-08-05T09:39:55.889Z,59.62
2022-08-05T09:40:52.501Z,53.66
2022-08-05T09:41:46.574Z,56.72
2022-08-05T09:42:48.404Z,57.36
2022-08-05T09:43:45.549Z,52.69
2022-08-05T09:44:45.533Z,55.27
2022-08-05T09:46:06.857Z,60.26
2022-08-05T09:46:51.711Z,53.01
2022-08-05T09:47:55.588Z,56.07
2022-08-05T09:49:06.521Z,57.36
2022-08-05T09:50:01.281Z,53.01
2022-08-05T09:50:46.510Z,53.17
2022-08-05T09:51:49.677Z,56.56
2022-08-05T09:52:45.472Z,54.79
2022-08-05T09:53:54.805Z,56.24
2022-08-05T09:54:46.456Z,57.20
2022-08-05T09:55:57.261Z,57.69
2022-08-05T09:56:52.320Z,61.07
2022-08-05T09:57:46.427Z,55.59
2022-08-05T09:58:45.425Z,60.59
2022-08-05T09:59:45.415Z,56.56
2022-08-05T10:00:45.439Z,61.55
2022-08-05T10:01:45.765Z,63.00
2022-08-05T10:02:45.442Z,59.62
2022-08-05T10:03:58.936Z,59.14
2022-08-05T10:04:46.378Z,59.62
2022-08-05T10:05:45.397Z,62.68
2022-08-05T10:06:49.808Z,56.72
2022-08-05T10:08:36.482Z,63.33
2022-08-05T10:08:53.765Z,57.04
2022-08-05T10:09:46.333Z,58.33
2022-08-05T10:10:48.269Z,56.88
2022-08-05T10:11:45.468Z,58.17
2022-08-05T10:12:49.716Z,62.36
2022-08-05T10:13:48.247Z,58.49
2022-08-05T10:14:45.296Z,56.24
2022-08-05T10:15:45.319Z,56.72
2022-08-05T10:16:52.857Z,60.10
2022-08-05T10:17:56.846Z,54.95
2022-08-05T10:18:48.213Z,56.72
2022-08-05T10:20:04.503Z,56.40
2022-08-05T10:20:48.341Z,55.11
2022-08-05T10:21:45.278Z,58.33
2022-08-05T10:22:50.957Z,61.23
2022-08-05T10:23:55.393Z,55.11
2022-08-05T10:24:46.221Z,56.24
2022-08-05T10:25:45.240Z,61.71
2022-08-05T10:26:51.459Z,61.23
2022-08-05T10:28:13.080Z,55.11
2022-08-05T10:28:46.590Z,58.17
2022-08-05T10:30:06.719Z,59.94
2022-08-05T10:32:50.750Z,60.26
2022-08-05T10:32:52.647Z,53.01
2022-08-05T10:32:54.860Z,59.78
2022-08-05T10:33:46.160Z,60.59
2022-08-05T10:34:46.177Z,62.20
2022-08-05T10:35:48.439Z,58.17
2022-08-05T10:36:46.121Z,58.81
2022-08-05T10:37:45.311Z,61.23
2022-08-05T10:38:45.162Z,53.50
2022-08-05T10:40:03.946Z,62.84
2022-08-05T10:40:46.140Z,55.91
2022-08-05T10:41:47.159Z,57.69
2022-08-05T10:42:45.080Z,57.85
2022-08-05T10:43:45.076Z,55.43
2022-08-05T10:44:45.087Z,55.27
2022-08-05T10:45:45.067Z,59.94
2022-08-05T10:46:45.047Z,57.85
2022-08-05T10:47:56.103Z,54.14
2022-08-05T10:48:58.063Z,52.69
2022-08-05T10:49:48.803Z,57.20
2022-08-05T10:50:45.025Z,62.36
2022-08-05T10:51:53.168Z,63.33
2022-08-05T10:52:49.548Z,60.42
2022-08-05T10:53:45.302Z,56.24
2022-08-05T10:54:47.098Z,59.62
2022-08-05T10:56:05.404Z,57.69
2022-08-05T10:56:45.961Z,53.66
2022-08-05T10:57:44.958Z,58.01
2022-08-05T10:58:48.705Z,56.72
2022-08-05T11:00:03.101Z,61.07
2022-08-05T11:00:45.965Z,57.85
2022-08-05T11:01:54.899Z,56.88
2022-08-05T11:02:50.503Z,57.20
2022-08-05T11:03:45.981Z,59.94
2022-08-05T11:04:44.909Z,55.91
2022-08-05T11:05:44.923Z,58.81
2022-08-05T11:06:44.889Z,53.82
2022-08-05T11:08:01.760Z,56.56
2022-08-05T11:08:45.873Z,61.71
2022-08-05T11:09:46.130Z,60.10
2022-08-05T11:10:50.208Z,60.10
2022-08-05T11:11:52.860Z,55.43
2022-08-05T11:12:54.199Z,61.39
2022-08-05T11:13:57.587Z,59.62
2022-08-05T11:15:19.427Z,59.94
2022-08-05T11:16:00.778Z,55.43
2022-08-05T11:16:56.095Z,56.07
2022-08-05T11:18:09.828Z,62.68
2022-08-05T11:18:46.958Z,58.33
2022-08-05T11:20:10.251Z,59.78
2022-08-05T11:20:45.815Z,54.46
2022-08-05T11:21:48.851Z,59.94
2022-08-05T11:22:44.762Z,61.07
2022-08-05T11:24:04.102Z,56.88
2022-08-05T11:24:50.572Z,53.98
2022-08-05T11:26:05.499Z,56.07
2022-08-05T11:26:49.772Z,55.59
2022-08-05T11:27:51.784Z,61.23
2022-08-05T11:28:45.728Z,57.69
2022-08-05T11:29:44.718Z,61.23
2022-08-05T11:30:44.734Z,55.11
2022-08-05T11:31:57.686Z,55.27
2022-08-05T11:32:47.794Z,58.33
2022-08-05T11:33:47.964Z,56.40
2022-08-05T11:34:51.920Z,53.98
2022-08-05T11:36:07.615Z,60.26
2022-08-05T11:36:45.659Z,61.87
2022-08-05T11:38:29.278Z,53.66
2022-08-05T11:38:51.235Z,56.56
2022-08-05T11:39:48.003Z,52.05
2022-08-05T11:40:44.628Z,52.37
2022-08-05T11:42:01.264Z,61.55
2022-08-05T11:42:45.612Z,60.59
2022-08-05T11:44:04.787Z,64.61
2022-08-05T11:44:54.027Z,56.56
2022-08-05T11:46:27.214Z,65.26
2022-08-05T11:46:58.451Z,57.69
2022-08-05T11:47:48.961Z,52.53
2022-08-05T11:48:44.565Z,56.40
2022-08-05T11:49:49.542Z,59.78
2022-08-05T11:50:45.550Z,55.75
2022-08-05T11:51:49.735Z,60.75
2022-08-05T11:52:46.157Z,56.56
2022-08-05T11:53:44.524Z,53.66
2022-08-05T11:54:48.375Z,57.85
2022-08-05T11:55:45.506Z,58.81
2022-08-05T11:56:44.532Z,57.20
2022-08-05T11:58:09.811Z,58.33
2022-08-05T11:58:52.830Z,54.14
2022-08-05T11:59:49.686Z,54.95
2022-08-05T12:00:46.981Z,53.17
2022-08-05T12:01:45.480Z,53.98
2022-08-05T12:02:45.480Z,56.88
2022-08-05T12:03:44.447Z,55.59
2022-08-05T12:04:45.437Z,55.27
2022-08-05T12:05:45.435Z,53.98
2022-08-05T12:06:48.925Z,60.10
2022-08-05T12:08:03.577Z,55.75
2022-08-05T12:08:49.926Z,59.62
2022-08-05T12:09:53.299Z,54.95
2022-08-05T12:10:46.534Z,58.65
2022-08-05T12:11:44.414Z,61.23
2022-08-05T12:12:46.647Z,62.68
2022-08-05T12:13:49.084Z,62.84
2022-08-05T12:14:47.281Z,55.75
2022-08-05T12:15:44.357Z,61.55
2022-08-05T12:16:45.378Z,58.65
2022-08-05T12:18:02.533Z,58.17
2022-08-05T12:18:48.650Z,58.33
2022-08-05T12:20:16.963Z,58.17
2022-08-05T12:20:45.308Z,63.00
2022-08-05T12:21:44.337Z,63.16
2022-08-05T12:22:46.126Z,60.91
2022-08-05T12:23:44.289Z,61.23
2022-08-05T12:24:49.466Z,59.46
2022-08-05T12:25:45.270Z,56.40
2022-08-05T12:26:44.519Z,59.78
2022-08-05T12:27:53.191Z,59.30
2022-08-05T12:28:45.253Z,63.16
2022-08-05T12:29:44.245Z,63.49
2022-08-05T12:30:45.829Z,58.17
2022-08-05T12:31:49.960Z,65.74
2022-08-05T12:32:46.225Z,57.69
2022-08-05T12:33:44.214Z,64.94
2022-08-05T12:34:44.212Z,60.42
2022-08-05T12:35:44.196Z,55.43
2022-08-05T12:36:44.286Z,58.01
2022-08-05T12:37:44.191Z,62.04
2022-08-05T12:38:44.184Z,62.68
2022-08-05T12:39:44.237Z,65.10
2022-08-05T12:40:44.356Z,59.78
2022-08-05T12:41:44.181Z,61.71
2022-08-05T12:42:44.150Z,58.33
2022-08-05T12:43:44.135Z,57.20
2022-08-05T12:44:44.134Z,62.20
2022-08-05T12:45:49.766Z,63.16
2022-08-05T12:46:45.643Z,60.42
2022-08-05T12:48:17.536Z,58.65
2022-08-05T12:48:45.094Z,65.58
2022-08-05T12:50:03.165Z,62.84
2022-08-05T12:50:45.085Z,58.65
2022-08-05T12:52:14.355Z,59.14
2022-08-05T12:52:45.066Z,62.36
2022-08-05T12:53:44.065Z,57.20